createdAt,value
2023-03-24T00:01:16.227Z,4.90
2023-03-24T00:04:02.910Z,4.63
2023-03-24T00:06:52.527Z,4.63
2023-03-24T00:09:38.182Z,4.30
2023-03-24T00:12:23.544Z,4.70
2023-03-24T00:15:13.445Z,4.60
2023-03-24T00:17:59.205Z,4.93
2023-03-24T00:20:46.112Z,4.70
2023-03-24T00:23:32.670Z,5.13
2023-03-24T00:26:18.136Z,4.13
2023-03-24T00:29:05.171Z,4.73
2023-03-24T00:31:52.757Z,4.60
2023-03-24T00:34:38.638Z,4.90
2023-03-24T00:37:24.166Z,4.27
2023-03-24T00:40:13.490Z,4.47
2023-03-24T00:42:59.236Z,4.33
2023-03-24T00:45:47.848Z,4.53
2023-03-24T00:48:34.297Z,4.57
2023-03-24T00:51:20.578Z,3.90
2023-03-24T00:54:09.270Z,4.20
2023-03-24T00:56:56.007Z,4.30
2023-03-24T00:59:49.094Z,4.90
2023-03-24T01:02:34.965Z,4.25
2023-03-24T01:05:28.112Z,4.47
2023-03-24T01:08:20.385Z,4.50
2023-03-24T01:11:06.740Z,3.90
2023-03-24T01:13:54.654Z,4.23
2023-03-24T01:16:42.280Z,4.03
2023-03-24T01:19:29.145Z,4.10
2023-03-24T01:22:15.363Z,4.23
2023-03-24T01:25:01.043Z,4.10
2023-03-24T01:27:47.725Z,3.77
2023-03-24T01:30:33.415Z,4.07
2023-03-24T01:33:18.674Z,3.70
2023-03-24T01:36:06.185Z,3.83
2023-03-24T01:38:52.602Z,4.10
2023-03-24T01:41:41.234Z,4.00
2023-03-24T01:44:33.585Z,3.60
2023-03-24T01:47:19.245Z,4.43
2023-03-24T01:50:05.187Z,4.10
2023-03-24T01:52:50.443Z,3.57
2023-03-24T01:55:36.044Z,3.80
2023-03-24T01:58:25.961Z,3.43
2023-03-24T02:01:50.070Z,3.57
2023-03-24T02:05:02.453Z,3.93
2023-03-24T02:08:21.245Z,3.40
2023-03-24T02:11:07.125Z,3.90
2023-03-24T02:14:02.894Z,3.63
2023-03-24T02:16:51.304Z,3.87
2023-03-24T02:20:11.351Z,3.40
2023-03-24T02:23:08.484Z,3.30
2023-03-24T02:26:18.652Z,3.17
2023-03-24T02:29:48.941Z,3.40
2023-03-24T02:32:57.160Z,3.30
2023-03-24T02:35:45.705Z,3.73
2023-03-24T02:38:43.769Z,3.10
2023-03-24T02:41:37.045Z,4.10
2023-03-24T02:44:30.761Z,3.10
2023-03-24T02:50:14.024Z,3.70
2023-03-24T02:53:09.300Z,3.40
2023-03-24T02:56:22.343Z,3.60
2023-03-24T02:59:19.626Z,3.30
2023-03-24T03:02:13.125Z,3.17
2023-03-24T03:05:27.513Z,3.38
2023-03-24T03:08:17.329Z,3.00
2023-03-24T03:11:07.036Z,3.20
2023-03-24T03:14:01.251Z,3.30
2023-03-24T03:16:53.627Z,3.27
2023-03-24T03:19:42.679Z,3.20
2023-03-24T03:22:33.943Z,3.00
2023-03-24T03:25:24.527Z,3.00
2023-03-24T03:28:14.372Z,3.10
2023-03-24T03:31:05.882Z,3.00
2023-03-24T03:34:05.959Z,3.03
2023-03-24T03:37:04.153Z,3.10
2023-03-24T03:40:09.161Z,2.67
2023-03-24T03:42:57.632Z,2.90
2023-03-24T03:45:43.867Z,3.23
2023-03-24T03:48:29.291Z,2.90
2023-03-24T03:51:16.407Z,3.27
2023-03-24T03:54:12.530Z,2.67
2023-03-24T03:56:59.881Z,2.67
2023-03-24T03:59:50.382Z,3.40
2023-03-24T04:03:05.457Z,3.00
2023-03-24T04:06:01.914Z,3.10
2023-03-24T04:09:18.591Z,2.53
2023-03-24T04:12:40.596Z,3.03
2023-03-24T04:15:51.606Z,2.87
2023-03-24T04:19:16.055Z,3.07
2023-03-24T04:22:24.572Z,2.80
2023-03-24T04:25:42.437Z,2.90
2023-03-24T04:28:39.858Z,2.80
2023-03-24T04:31:41.158Z,2.50
2023-03-24T04:34:36.089Z,3.00
2023-03-24T04:37:38.276Z,2.97
2023-03-24T04:40:42.170Z,2.70
2023-03-24T04:43:36.106Z,2.97
2023-03-24T04:46:24.282Z,2.47
2023-03-24T04:49:13.441Z,2.80
2023-03-24T04:51:59.952Z,3.00
2023-03-24T04:54:47.118Z,3.00
2023-03-24T04:57:32.852Z,2.80
2023-03-24T05:00:25.038Z,2.83
2023-03-24T05:03:16.776Z,2.70
2023-03-24T05:06:05.720Z,3.00
2023-03-24T05:08:55.068Z,2.70
2023-03-24T05:11:41.348Z,2.57
2023-03-24T05:14:32.289Z,2.80
2023-03-24T05:17:18.031Z,2.73
2023-03-24T05:20:06.924Z,2.53
2023-03-24T05:22:52.771Z,2.40
2023-03-24T05:25:38.385Z,3.57
2023-03-24T05:28:23.791Z,2.87
2023-03-24T05:31:11.565Z,4.93
2023-03-24T05:34:02.542Z,4.00
2023-03-24T05:36:49.570Z,2.83
2023-03-24T05:39:42.903Z,3.47
2023-03-24T05:42:52.131Z,4.00
2023-03-24T05:45:39.408Z,3.57
2023-03-24T05:48:34.094Z,3.80
2023-03-24T05:51:30.792Z,4.77
2023-03-24T05:54:22.815Z,5.25
2023-03-24T05:57:14.668Z,6.40
2023-03-24T06:00:18.675Z,5.40
2023-03-24T06:03:17.343Z,5.07
2023-03-24T06:06:15.607Z,4.23
2023-03-24T06:09:05.073Z,5.37
2023-03-24T06:11:51.151Z,5.37
2023-03-24T06:14:36.985Z,5.57
2023-03-24T06:17:30.372Z,6.47
2023-03-24T06:20:18.834Z,6.50
2023-03-24T06:23:12.613Z,6.40
2023-03-24T06:26:11.718Z,6.30
2023-03-24T06:29:07.140Z,6.03
2023-03-24T06:31:56.669Z,6.67
2023-03-24T06:34:42.334Z,8.27
2023-03-24T06:37:50.466Z,6.67
2023-03-24T06:40:36.122Z,6.93
2023-03-24T06:43:21.860Z,7.87
2023-03-24T06:46:10.134Z,7.53
2023-03-24T06:48:59.044Z,7.60
2023-03-24T06:51:44.256Z,7.83
2023-03-24T06:54:31.876Z,8.10
2023-03-24T06:57:19.237Z,8.47
2023-03-24T07:00:42.448Z,8.47
2023-03-24T07:03:51.148Z,8.43
2023-03-24T07:07:12.080Z,8.15
2023-03-24T07:10:03.661Z,8.53
2023-03-24T07:12:50.183Z,8.13
2023-03-24T07:15:35.647Z,8.33
2023-03-24T07:18:22.018Z,8.70
2023-03-24T07:21:14.043Z,8.27
2023-03-24T07:24:02.174Z,7.33
2023-03-24T07:27:08.741Z,5.17
2023-03-24T07:29:54.656Z,5.77
2023-03-24T07:32:49.559Z,6.00
2023-03-24T07:35:36.536Z,13.60
2023-03-24T07:38:25.319Z,12.03
2023-03-24T07:41:14.299Z,11.33
2023-03-24T07:44:05.503Z,10.17
2023-03-24T07:46:59.980Z,11.30
2023-03-24T07:49:46.204Z,11.40
2023-03-24T07:52:33.608Z,10.03
2023-03-24T07:55:19.150Z,11.40
2023-03-24T07:58:27.834Z,10.17
2023-03-24T08:01:30.657Z,9.05
2023-03-24T08:04:19.330Z,7.20
2023-03-24T08:07:24.937Z,6.23
2023-03-24T08:10:12.670Z,6.10
2023-03-24T08:12:59.105Z,5.00
2023-03-24T08:15:44.668Z,3.73
2023-03-24T08:18:32.087Z,3.70
2023-03-24T08:21:17.671Z,3.40
2023-03-24T08:24:02.965Z,3.10
2023-03-24T08:26:48.568Z,2.87
2023-03-24T08:29:38.104Z,2.90
2023-03-24T08:32:28.488Z,2.70
2023-03-24T08:35:16.785Z,2.70
2023-03-24T08:38:06.529Z,2.63
2023-03-24T08:40:52.343Z,2.80
2023-03-24T08:43:38.003Z,2.43
2023-03-24T08:46:23.857Z,2.30
2023-03-24T08:49:09.852Z,2.30
2023-03-24T08:51:55.521Z,2.00
2023-03-24T08:54:40.647Z,2.23
2023-03-24T08:57:26.187Z,2.33
2023-03-24T09:00:15.724Z,2.57
2023-03-24T09:03:01.585Z,2.30
2023-03-24T09:05:47.691Z,2.40
2023-03-24T09:08:33.087Z,2.40
2023-03-24T09:11:20.378Z,2.30
2023-03-24T09:14:06.116Z,2.47
2023-03-24T09:16:51.434Z,2.43
2023-03-24T09:19:37.630Z,2.67
2023-03-24T09:22:23.093Z,2.40
2023-03-24T09:25:10.421Z,2.17
2023-03-24T09:27:57.005Z,2.40
2023-03-24T09:30:43.365Z,2.23
2023-03-24T09:33:31.805Z,2.13
2023-03-24T09:36:19.148Z,2.30
2023-03-24T09:39:05.026Z,2.23
2023-03-24T09:41:50.668Z,2.40
2023-03-24T09:44:46.580Z,2.23
2023-03-24T09:47:38.248Z,2.10
2023-03-24T09:50:43.293Z,1.80
2023-03-24T09:53:41.877Z,2.20
2023-03-24T09:56:29.755Z,2.03
2023-03-24T09:59:20.700Z,2.00
2023-03-24T10:02:23.062Z,1.60
2023-03-24T10:05:37.761Z,2.00
2023-03-24T10:08:35.920Z,1.60
2023-03-24T10:11:32.191Z,1.47
2023-03-24T10:14:40.670Z,1.77
2023-03-24T10:17:41.542Z,1.87
2023-03-24T10:20:56.606Z,1.70
2023-03-24T10:24:08.204Z,1.47
2023-03-24T10:27:00.984Z,1.40
2023-03-24T10:29:49.212Z,1.10
2023-03-24T10:32:36.335Z,1.40
2023-03-24T10:35:27.672Z,1.47
2023-03-24T10:38:22.063Z,1.33
2023-03-24T10:41:12.527Z,1.23
2023-03-24T10:43:59.311Z,1.00
2023-03-24T10:46:48.518Z,1.10
2023-03-24T10:49:33.755Z,1.00
2023-03-24T10:52:19.823Z,1.17
2023-03-24T10:55:07.212Z,1.20
2023-03-24T10:57:58.314Z,0.90
2023-03-24T11:00:45.327Z,1.07
2023-03-24T11:03:36.601Z,1.20
2023-03-24T11:06:22.384Z,1.17
2023-03-24T11:09:19.617Z,1.10
2023-03-24T11:12:05.275Z,1.37
2023-03-24T11:14:50.899Z,1.00
2023-03-24T11:17:36.136Z,1.10
2023-03-24T11:20:25.809Z,1.30
2023-03-24T11:23:19.939Z,1.10
2023-03-24T11:26:28.369Z,1.10
2023-03-24T11:29:18.835Z,1.00
2023-03-24T11:32:13.676Z,1.20
2023-03-24T11:35:07.777Z,1.17
2023-03-24T11:37:54.099Z,0.80
2023-03-24T11:40:53.519Z,1.00
2023-03-24T11:43:38.846Z,1.03
2023-03-24T11:46:26.580Z,1.10
2023-03-24T11:49:16.891Z,1.00
2023-03-24T11:52:04.579Z,1.07
2023-03-24T11:54:50.154Z,1.10
2023-03-24T11:57:56.508Z,1.23
2023-03-24T12:01:02.066Z,0.97
2023-03-24T12:04:07.715Z,0.93
2023-03-24T12:06:52.831Z,1.20
2023-03-24T12:10:02.959Z,1.00
2023-03-24T12:12:54.421Z,1.20
2023-03-24T12:15:51.438Z,0.90
2023-03-24T12:19:11.156Z,1.00
2023-03-24T12:22:23.093Z,1.13
2023-03-24T12:25:38.232Z,1.10
2023-03-24T12:28:46.705Z,1.20
2023-03-24T12:31:45.368Z,1.20
2023-03-24T12:35:06.272Z,1.00
2023-03-24T12:37:57.845Z,1.17
2023-03-24T12:40:43.213Z,1.20
2023-03-24T12:43:50.393Z,1.23
2023-03-24T12:47:10.477Z,1.00
2023-03-24T12:50:05.636Z,1.37
2023-03-24T12:53:07.818Z,1.73
2023-03-24T12:56:00.384Z,2.33
2023-03-24T12:58:53.899Z,2.15
2023-03-24T13:04:33.987Z,2.23
2023-03-24T13:07:28.948Z,1.42
2023-03-24T13:10:21.691Z,1.70
2023-03-24T13:13:23.936Z,2.40
2023-03-24T13:16:15.365Z,3.20
2023-03-24T13:19:02.739Z,4.67
2023-03-24T13:21:50.849Z,4.80
2023-03-24T13:24:36.276Z,5.20
2023-03-24T13:27:32.467Z,4.33
2023-03-24T13:30:39.873Z,3.23
2023-03-24T13:33:29.987Z,4.10
2023-03-24T13:36:18.611Z,4.97
2023-03-24T13:39:14.592Z,5.37
2023-03-24T13:42:01.455Z,4.63
2023-03-24T13:44:49.219Z,4.83
2023-03-24T13:47:55.946Z,4.70
2023-03-24T13:50:55.824Z,3.80
2023-03-24T13:53:52.902Z,5.53
2023-03-24T13:56:48.865Z,7.53
2023-03-24T14:00:08.607Z,10.93
2023-03-24T14:03:04.013Z,8.10
2023-03-24T14:06:05.433Z,9.90
2023-03-24T14:08:52.751Z,8.63
2023-03-24T14:11:42.270Z,8.67
2023-03-24T14:14:29.433Z,6.70
2023-03-24T14:17:15.821Z,5.70
2023-03-24T14:20:05.893Z,5.83
2023-03-24T14:22:53.148Z,4.83
2023-03-24T14:25:38.652Z,4.50
2023-03-24T14:28:39.106Z,4.60
2023-03-24T14:31:29.829Z,4.73
2023-03-24T14:34:21.296Z,4.30
2023-03-24T14:37:08.994Z,2.10
2023-03-24T14:39:57.555Z,3.47
2023-03-24T14:42:42.997Z,4.77
2023-03-24T14:46:06.411Z,4.67
2023-03-24T14:49:15.799Z,3.88
2023-03-24T14:52:20.300Z,4.50
2023-03-24T14:55:10.844Z,4.47
2023-03-24T14:58:02.223Z,4.63
2023-03-24T15:01:06.391Z,4.33
2023-03-24T15:04:06.885Z,3.87
2023-03-24T15:06:52.386Z,4.80
2023-03-24T15:09:38.713Z,3.90
2023-03-24T15:12:24.607Z,6.37
2023-03-24T15:15:27.187Z,6.13
2023-03-24T15:18:19.575Z,5.63
2023-03-24T15:21:34.753Z,7.60
2023-03-24T15:24:23.046Z,7.70
2023-03-24T15:27:08.387Z,7.63
2023-03-24T15:29:57.645Z,6.30
2023-03-24T15:32:46.211Z,6.67
2023-03-24T15:35:33.897Z,7.20
2023-03-24T15:38:27.215Z,7.00
2023-03-24T15:43:59.994Z,5.77
2023-03-24T15:46:45.940Z,5.67
2023-03-24T15:49:33.977Z,5.30
2023-03-24T15:52:28.963Z,5.10
2023-03-24T15:55:36.741Z,6.23
2023-03-24T15:58:25.510Z,4.43
2023-03-24T16:01:14.255Z,4.87
2023-03-24T16:04:01.834Z,5.50
2023-03-24T16:06:54.046Z,5.30
2023-03-24T16:09:40.937Z,4.57
2023-03-24T16:12:26.804Z,4.40
2023-03-24T16:15:13.213Z,4.47
2023-03-24T16:17:59.468Z,4.40
2023-03-24T16:20:44.571Z,4.13
2023-03-24T16:23:30.993Z,4.37
2023-03-24T16:26:19.835Z,3.30
2023-03-24T16:29:22.748Z,4.13
2023-03-24T16:32:09.689Z,4.30
2023-03-24T16:34:55.033Z,4.23
2023-03-24T16:37:42.487Z,4.10
2023-03-24T16:40:39.257Z,4.00
2023-03-24T16:43:27.439Z,4.20
2023-03-24T16:46:31.602Z,3.90
2023-03-24T16:49:18.541Z,3.87
2023-03-24T16:52:04.361Z,4.00
2023-03-24T16:54:50.627Z,3.77
2023-03-24T16:57:38.341Z,3.70
2023-03-24T17:00:24.268Z,4.17
2023-03-24T17:03:10.594Z,3.80
2023-03-24T17:05:57.695Z,3.83
2023-03-24T17:08:45.041Z,3.40
2023-03-24T17:11:58.545Z,4.00
2023-03-24T17:14:44.456Z,3.30
2023-03-24T17:17:30.728Z,3.87
2023-03-24T17:20:16.703Z,2.97
2023-03-24T17:23:02.209Z,3.73
2023-03-24T17:25:47.681Z,2.73
2023-03-24T17:28:33.090Z,2.97
2023-03-24T17:31:18.446Z,2.80
2023-03-24T17:34:20.375Z,3.00
2023-03-24T17:37:06.534Z,3.33
2023-03-24T17:39:52.990Z,2.70
2023-03-24T17:42:40.798Z,3.40
2023-03-24T17:45:26.249Z,3.23
2023-03-24T17:48:11.632Z,3.20
2023-03-24T17:50:57.218Z,3.07
2023-03-24T17:53:45.016Z,2.73
2023-03-24T17:56:30.770Z,2.80
2023-03-24T17:59:16.214Z,3.03
2023-03-24T18:02:01.881Z,3.67
2023-03-24T18:04:47.485Z,3.00
2023-03-24T18:07:33.028Z,3.47
2023-03-24T18:10:18.815Z,3.40
2023-03-24T18:13:05.329Z,3.30
2023-03-24T18:15:50.974Z,2.73
2023-03-24T18:18:41.324Z,3.00
2023-03-24T18:21:27.147Z,3.27
2023-03-24T18:24:12.427Z,3.00
2023-03-24T18:26:58.287Z,2.70
2023-03-24T18:29:43.928Z,2.60
2023-03-24T18:32:30.685Z,2.93
2023-03-24T18:35:16.658Z,2.70
2023-03-24T18:38:02.178Z,6.20
2023-03-24T18:40:49.658Z,2.33
2023-03-24T18:43:40.973Z,3.37
2023-03-24T18:46:27.439Z,2.67
2023-03-24T18:49:16.814Z,2.63
2023-03-24T18:52:02.483Z,2.80
2023-03-24T18:54:49.163Z,2.97
2023-03-24T18:57:34.874Z,2.53
2023-03-24T19:00:21.887Z,1.87
2023-03-24T19:03:08.284Z,1.83
2023-03-24T19:05:53.520Z,2.67
2023-03-24T19:08:42.068Z,2.30
2023-03-24T19:11:27.701Z,3.23
2023-03-24T19:14:13.088Z,3.07
2023-03-24T19:16:59.748Z,2.97
2023-03-24T19:19:45.415Z,2.63
2023-03-24T19:22:31.157Z,3.63
2023-03-24T19:25:16.656Z,3.10
2023-03-24T19:28:02.637Z,3.57
2023-03-24T19:30:48.698Z,3.23
2023-03-24T19:33:35.781Z,3.37
2023-03-24T19:36:21.375Z,3.27
2023-03-24T19:39:07.552Z,3.60
2023-03-24T19:41:53.494Z,3.67
2023-03-24T19:44:38.997Z,3.60
2023-03-24T19:47:24.378Z,2.90
2023-03-24T19:50:10.740Z,3.43
2023-03-24T19:52:56.393Z,3.40
2023-03-24T19:55:41.827Z,3.27
2023-03-24T19:58:27.272Z,2.83
2023-03-24T20:01:12.937Z,3.40
2023-03-24T20:03:58.583Z,3.10
2023-03-24T20:06:46.099Z,3.47
2023-03-24T20:09:31.786Z,3.17
2023-03-24T20:12:17.350Z,3.60
2023-03-24T20:15:03.993Z,3.40
2023-03-24T20:17:49.919Z,3.10
2023-03-24T20:20:36.314Z,3.47
2023-03-24T20:23:23.068Z,3.70
2023-03-24T20:26:12.256Z,3.00
2023-03-24T20:29:01.353Z,3.20
2023-03-24T20:31:47.203Z,3.27
2023-03-24T20:34:33.417Z,3.07
2023-03-24T20:37:21.929Z,2.53
2023-03-24T20:40:09.828Z,2.97
2023-03-24T20:42:56.502Z,3.10
2023-03-24T20:45:42.848Z,3.00
2023-03-24T20:48:32.283Z,2.60
2023-03-24T20:51:18.462Z,2.70
2023-03-24T20:54:05.764Z,2.60
2023-03-24T20:56:54.973Z,2.77
2023-03-24T20:59:41.385Z,3.03
2023-03-24T21:02:32.361Z,2.83
2023-03-24T21:05:18.824Z,2.97
2023-03-24T21:08:04.856Z,2.50
2023-03-24T21:10:54.675Z,2.97
2023-03-24T21:13:40.613Z,3.30
2023-03-24T21:16:26.959Z,2.77
2023-03-24T21:19:13.091Z,3.23
2023-03-24T21:21:59.408Z,2.63
2023-03-24T21:24:44.905Z,2.60
2023-03-24T21:27:30.695Z,2.80
2023-03-24T21:30:18.951Z,2.60
2023-03-24T21:33:04.517Z,3.00
2023-03-24T21:35:50.020Z,2.53
2023-03-24T21:38:37.495Z,2.67
2023-03-24T21:41:23.534Z,2.73
2023-03-24T21:44:09.525Z,3.30
2023-03-24T21:46:54.913Z,2.53
2023-03-24T21:49:42.864Z,2.70
2023-03-24T21:52:29.697Z,2.80
2023-03-24T21:55:16.413Z,2.40
2023-03-24T21:58:01.900Z,2.87
2023-03-24T22:00:49.627Z,2.60
2023-03-24T22:03:37.311Z,2.67
2023-03-24T22:06:23.190Z,2.50
2023-03-24T22:09:10.658Z,2.80
2023-03-24T22:11:57.491Z,2.63
2023-03-24T22:14:42.953Z,2.90
2023-03-24T22:17:29.209Z,2.83
2023-03-24T22:20:15.752Z,2.87
2023-03-24T22:23:03.616Z,2.43
2023-03-24T22:25:52.878Z,2.90
2023-03-24T22:28:39.423Z,2.60
2023-03-24T22:31:26.253Z,2.47
2023-03-24T22:34:14.083Z,2.50
2023-03-24T22:36:59.485Z,2.70
2023-03-24T22:39:44.733Z,2.80
2023-03-24T22:42:30.439Z,2.67
2023-03-24T22:45:16.214Z,2.43
2023-03-24T22:48:02.036Z,2.67
2023-03-24T22:50:47.652Z,2.47
2023-03-24T22:53:33.828Z,2.77
2023-03-24T22:56:20.442Z,2.90
2023-03-24T22:59:06.490Z,2.77
2023-03-24T23:02:06.521Z,2.63
2023-03-24T23:04:55.916Z,2.63
2023-03-24T23:07:42.372Z,3.10
2023-03-24T23:10:28.068Z,2.23
2023-03-24T23:13:13.617Z,2.13
2023-03-24T23:15:59.205Z,2.40
2023-03-24T23:18:45.570Z,2.33
2023-03-24T23:21:31.185Z,2.43
2023-03-24T23:24:17.061Z,2.10
2023-03-24T23:27:02.408Z,2.30
2023-03-24T23:29:47.729Z,2.30
2023-03-24T23:32:34.355Z,2.00
2023-03-24T23:35:19.962Z,2.23
2023-03-24T23:38:06.714Z,2.20
2023-03-24T23:40:52.163Z,1.97
2023-03-24T23:43:37.507Z,2.03
2023-03-24T23:46:24.211Z,2.27
2023-03-24T23:49:09.727Z,1.97
2023-03-24T23:51:55.265Z,2.30
2023-03-24T23:54:40.356Z,2.23
2023-03-24T23:57:26.184Z,2.23
